createdAt,value
2022-10-25T00:00:17.351Z,37.88
2022-10-25T00:05:22.603Z,34.65
2022-10-25T00:10:27.838Z,33.78
2022-10-25T00:15:33.142Z,33.90
2022-10-25T00:20:39.461Z,33.20
2022-10-25T00:25:45.701Z,31.30
2022-10-25T00:30:50.867Z,34.67
2022-10-25T00:35:56.317Z,33.67
2022-10-25T00:41:01.721Z,32.30
2022-10-25T00:46:34.884Z,30.40
2022-10-25T00:51:58.500Z,30.23
2022-10-25T00:57:07.174Z,28.10
2022-10-25T01:02:12.722Z,27.60
2022-10-25T01:07:17.952Z,32.22
2022-10-25T01:12:23.031Z,28.13
2022-10-25T01:17:38.159Z,25.00
2022-10-25T01:22:58.228Z,27.63
2022-10-25T01:28:15.024Z,23.33
2022-10-25T01:33:49.299Z,27.95
2022-10-25T01:39:17.398Z,28.17
2022-10-25T01:44:28.260Z,26.85
2022-10-25T01:49:39.363Z,30.27
2022-10-25T01:54:44.690Z,18.30
2022-10-25T01:59:52.717Z,26.57
2022-10-25T02:05:09.919Z,18.83
2022-10-25T02:10:15.118Z,21.45
2022-10-25T02:15:24.907Z,24.97
2022-10-25T02:20:33.276Z,15.60
2022-10-25T02:25:39.707Z,24.33
2022-10-25T02:30:45.789Z,25.95
2022-10-25T02:36:13.863Z,26.98
2022-10-25T02:41:19.614Z,23.30
2022-10-25T02:46:25.644Z,27.58
2022-10-25T02:51:30.303Z,28.38
2022-10-25T02:56:35.103Z,25.23
2022-10-25T03:01:40.266Z,24.60
2022-10-25T03:06:45.581Z,20.37
2022-10-25T03:11:51.144Z,15.23
2022-10-25T03:22:01.291Z,21.33
2022-10-25T03:27:06.751Z,18.93
2022-10-25T03:32:11.806Z,14.40
2022-10-25T03:37:16.708Z,26.67
2022-10-25T03:42:22.102Z,19.58
2022-10-25T03:47:30.100Z,18.48
2022-10-25T03:52:35.809Z,24.53
2022-10-25T04:02:46.762Z,42.78
2022-10-25T04:07:55.675Z,39.60
2022-10-25T04:13:01.737Z,31.75
2022-10-25T04:18:10.153Z,36.70
2022-10-25T04:23:16.047Z,51.10
2022-10-25T04:28:21.574Z,25.48
2022-10-25T04:33:27.688Z,35.75
2022-10-25T04:38:39.355Z,52.72
2022-10-25T04:43:45.038Z,29.60
2022-10-25T04:48:50.482Z,41.42
2022-10-25T04:53:59.926Z,47.83
2022-10-25T04:59:11.816Z,50.47
2022-10-25T05:04:17.192Z,46.92
2022-10-25T05:09:22.905Z,49.97
2022-10-25T05:14:28.674Z,19.77
2022-10-25T05:19:34.232Z,39.92
2022-10-25T05:24:39.842Z,39.78
2022-10-25T05:29:45.382Z,29.08
2022-10-25T05:34:51.140Z,43.20
2022-10-25T05:45:01.186Z,48.53
2022-10-25T05:50:07.654Z,17.70
2022-10-25T05:55:16.270Z,54.22
2022-10-25T06:00:21.821Z,60.97
2022-10-25T06:05:27.035Z,53.90
2022-10-25T06:10:32.912Z,59.45
2022-10-25T06:15:41.555Z,56.50
2022-10-25T06:20:47.223Z,59.40
2022-10-25T06:25:52.792Z,61.88
2022-10-25T06:31:03.440Z,47.77
2022-10-25T06:36:09.662Z,54.47
2022-10-25T06:41:25.606Z,64.53
2022-10-25T06:46:33.259Z,54.45
2022-10-25T06:51:38.701Z,60.15
2022-10-25T06:56:44.146Z,63.53
2022-10-25T07:01:50.075Z,55.17
2022-10-25T07:06:55.413Z,57.78
2022-10-25T07:12:01.149Z,41.42
2022-10-25T07:17:06.395Z,53.03
2022-10-25T07:22:11.786Z,60.13
2022-10-25T07:27:16.936Z,69.97
2022-10-25T07:32:21.892Z,62.20
2022-10-25T07:37:27.046Z,60.90
2022-10-25T07:42:31.971Z,61.90
2022-10-25T07:47:37.245Z,68.87
2022-10-25T07:52:42.483Z,67.28
2022-10-25T07:57:47.608Z,68.75
2022-10-25T08:02:53.140Z,75.45
2022-10-25T08:07:58.055Z,67.28
2022-10-25T08:13:03.406Z,63.00
2022-10-25T08:18:11.567Z,55.88
2022-10-25T08:23:17.268Z,37.97
2022-10-25T08:33:30.942Z,62.58
2022-10-25T08:38:36.229Z,39.22
2022-10-25T08:43:49.293Z,54.43
2022-10-25T08:49:01.998Z,48.17
2022-10-25T08:54:33.799Z,45.85
2022-10-25T08:59:42.177Z,44.67
2022-10-25T09:04:48.158Z,40.10
2022-10-25T09:15:01.424Z,42.95
2022-10-25T09:20:13.492Z,48.55
2022-10-25T09:25:23.922Z,57.75
2022-10-25T09:30:30.672Z,58.47
2022-10-25T09:35:59.269Z,49.63
2022-10-25T09:41:07.040Z,55.22
2022-10-25T09:46:18.107Z,52.33
2022-10-25T09:51:36.109Z,33.38
2022-10-25T09:56:43.002Z,50.03
2022-10-25T10:01:48.865Z,46.25
2022-10-25T10:06:56.369Z,47.00
2022-10-25T10:12:07.028Z,53.10
2022-10-25T10:17:16.153Z,53.60
2022-10-25T10:22:32.565Z,45.45
2022-10-25T10:27:38.252Z,39.80
2022-10-25T10:32:44.057Z,35.20
2022-10-25T10:42:57.078Z,46.75
2022-10-25T10:48:04.365Z,25.63
2022-10-25T10:53:10.881Z,26.63
2022-10-25T10:58:21.179Z,45.08
2022-10-25T11:03:58.785Z,24.98
2022-10-25T11:09:21.921Z,29.58
2022-10-25T11:14:30.710Z,33.10
2022-10-25T11:20:00.622Z,49.22
2022-10-25T11:25:06.178Z,25.90
2022-10-25T11:35:35.337Z,35.53
2022-10-25T11:40:44.451Z,30.48
2022-10-25T11:45:53.598Z,32.63
2022-10-25T11:51:25.101Z,53.70
2022-10-25T11:56:36.739Z,39.20
2022-10-25T12:02:00.814Z,44.20
2022-10-25T12:07:13.018Z,42.08
2022-10-25T12:12:37.309Z,53.25
2022-10-25T12:17:43.239Z,41.78
2022-10-25T12:22:50.512Z,43.45
2022-10-25T12:28:02.695Z,44.75
2022-10-25T12:33:14.512Z,54.90
2022-10-25T12:38:27.969Z,47.15
2022-10-25T12:43:36.259Z,55.80
2022-10-25T12:49:04.868Z,57.70
2022-10-25T12:54:28.722Z,57.75
2022-10-25T12:59:37.299Z,54.13
2022-10-25T13:05:00.847Z,57.88
2022-10-25T13:10:19.019Z,48.53
2022-10-25T13:15:26.764Z,41.88
2022-10-25T13:20:32.600Z,40.80
2022-10-25T13:25:37.997Z,50.15
2022-10-25T13:30:44.001Z,46.20
2022-10-25T13:41:12.626Z,65.15
2022-10-25T13:46:18.519Z,58.20
2022-10-25T13:51:28.044Z,51.38
2022-10-25T13:56:34.204Z,53.47
2022-10-25T14:01:44.879Z,55.55
2022-10-25T14:06:50.924Z,53.85
2022-10-25T14:11:57.176Z,50.10
2022-10-25T14:17:09.677Z,51.90
2022-10-25T14:22:35.040Z,43.35
2022-10-25T14:27:45.599Z,49.97
2022-10-25T14:33:14.502Z,55.10
2022-10-25T14:38:28.027Z,49.50
2022-10-25T14:43:35.759Z,53.45
2022-10-25T14:48:42.279Z,58.80
2022-10-25T14:54:05.777Z,57.47
2022-10-25T14:59:21.056Z,59.60
2022-10-25T15:04:37.923Z,60.00
2022-10-25T15:10:07.282Z,60.97
2022-10-25T15:15:31.152Z,55.92
2022-10-25T15:20:38.706Z,58.13
2022-10-25T15:25:44.245Z,57.42
2022-10-25T15:30:52.439Z,60.25
2022-10-25T15:35:59.717Z,50.08
2022-10-25T15:41:04.782Z,50.50
2022-10-25T15:46:14.138Z,52.63
2022-10-25T15:51:20.166Z,63.90
2022-10-25T15:56:25.757Z,47.80
2022-10-25T16:01:32.038Z,53.40
2022-10-25T16:06:37.881Z,55.47
2022-10-25T16:11:46.974Z,46.63
2022-10-25T16:16:53.138Z,62.90
2022-10-25T16:21:58.699Z,68.15
2022-10-25T16:32:10.209Z,68.25
2022-10-25T16:37:15.773Z,56.92
2022-10-25T16:42:35.627Z,63.67
2022-10-25T16:47:41.531Z,47.45
2022-10-25T16:57:52.227Z,68.38
2022-10-25T17:02:57.838Z,45.42
2022-10-25T17:08:03.704Z,56.42
2022-10-25T17:18:16.108Z,71.53
2022-10-25T17:23:22.170Z,68.15
2022-10-25T17:28:27.786Z,71.72
2022-10-25T17:33:34.205Z,67.00
2022-10-25T17:38:39.812Z,68.93
2022-10-25T17:43:45.331Z,68.20
2022-10-25T17:48:51.135Z,65.13
2022-10-25T17:53:57.463Z,68.70
2022-10-25T17:59:07.932Z,67.40
2022-10-25T18:04:14.954Z,65.15
2022-10-25T18:09:20.462Z,64.43
2022-10-25T18:19:31.411Z,65.65
2022-10-25T18:24:38.589Z,65.18
2022-10-25T18:29:44.880Z,59.05
2022-10-25T18:34:50.431Z,50.85
2022-10-25T18:39:56.116Z,57.05
2022-10-25T18:45:01.511Z,51.50
2022-10-25T18:50:07.003Z,55.90
2022-10-25T18:55:12.723Z,62.38
2022-10-25T19:00:18.753Z,61.80
2022-10-25T19:05:24.521Z,60.53
2022-10-25T19:10:30.087Z,62.15
2022-10-25T19:15:35.728Z,56.53
2022-10-25T19:20:42.933Z,60.10
2022-10-25T19:25:50.820Z,56.00
2022-10-25T19:30:56.404Z,50.47
2022-10-25T19:36:08.387Z,48.15
2022-10-25T19:41:16.232Z,53.95
2022-10-25T19:46:21.882Z,53.90
2022-10-25T19:51:27.386Z,51.78
2022-10-25T19:56:35.465Z,53.88
2022-10-25T20:01:43.835Z,50.92
2022-10-25T20:06:49.204Z,51.58
2022-10-25T20:11:54.755Z,53.93
2022-10-25T20:17:00.229Z,58.88
2022-10-25T20:22:06.744Z,50.38
2022-10-25T20:27:12.334Z,51.47
2022-10-25T20:37:24.205Z,48.77
2022-10-25T20:42:29.799Z,55.42
2022-10-25T20:47:35.055Z,60.85
2022-10-25T20:52:48.013Z,59.97
2022-10-25T20:58:04.284Z,64.47
2022-10-25T21:03:09.862Z,58.90
2022-10-25T21:08:15.685Z,58.90
2022-10-25T21:13:20.935Z,57.47
2022-10-25T21:18:29.318Z,55.60
2022-10-25T21:23:34.506Z,66.03
2022-10-25T21:28:41.251Z,70.03
2022-10-25T21:33:51.269Z,69.20
2022-10-25T21:38:56.951Z,72.10
2022-10-25T21:44:02.566Z,59.00
2022-10-25T21:49:07.863Z,62.17
2022-10-25T21:54:13.547Z,66.40
2022-10-25T21:59:18.756Z,80.25
2022-10-25T22:04:29.202Z,83.27
2022-10-25T22:09:34.995Z,77.88
2022-10-25T22:14:40.529Z,75.93
2022-10-25T22:19:46.243Z,71.68
2022-10-25T22:24:51.700Z,71.05
2022-10-25T22:29:57.384Z,79.80
2022-10-25T22:35:03.260Z,77.80
2022-10-25T22:40:09.222Z,82.88
2022-10-25T22:45:14.966Z,72.65
2022-10-25T22:50:20.212Z,69.72
2022-10-25T22:55:25.955Z,70.93
2022-10-25T23:00:31.278Z,66.15
2022-10-25T23:05:38.429Z,82.90
2022-10-25T23:10:43.652Z,79.95
2022-10-25T23:15:48.872Z,81.47
2022-10-25T23:20:55.812Z,79.20
2022-10-25T23:26:04.864Z,86.90
2022-10-25T23:31:11.949Z,95.03
2022-10-25T23:36:18.458Z,71.40
2022-10-25T23:41:25.197Z,96.20
2022-10-25T23:46:30.699Z,88.82
2022-10-25T23:51:36.479Z,89.20
2022-10-25T23:56:42.026Z,82.50
